createdAt,value
2019-02-16T00:01:07.118Z,47.80
2019-02-16T00:03:36.011Z,48.40
2019-02-16T00:06:08.197Z,48.40
2019-02-16T00:08:41.101Z,49.00
2019-02-16T00:11:10.843Z,49.90
2019-02-16T00:13:40.947Z,50.20
2019-02-16T00:16:10.761Z,50.80
2019-02-16T00:18:41.554Z,49.70
2019-02-16T00:21:12.976Z,50.00
2019-02-16T00:23:45.010Z,50.00
2019-02-16T00:26:15.592Z,51.00
2019-02-16T00:28:46.138Z,52.00
2019-02-16T00:31:15.018Z,54.40
2019-02-16T00:33:44.262Z,54.00
2019-02-16T00:36:14.506Z,53.80
2019-02-16T00:38:45.410Z,53.00
2019-02-16T00:41:14.308Z,53.30
2019-02-16T00:43:43.170Z,53.20
2019-02-16T00:46:12.881Z,53.60
2019-02-16T00:48:43.282Z,52.80
2019-02-16T00:51:13.917Z,54.80
2019-02-16T00:53:42.621Z,57.80
2019-02-16T00:56:12.349Z,58.50
2019-02-16T00:58:42.503Z,58.00
2019-02-16T01:01:11.428Z,58.50
2019-02-16T01:03:40.603Z,60.60
2019-02-16T01:06:09.439Z,63.30
2019-02-16T01:08:38.292Z,61.20
2019-02-16T01:11:07.745Z,61.80
2019-02-16T01:13:36.654Z,64.00
2019-02-16T01:16:05.466Z,64.30
2019-02-16T01:18:34.393Z,65.20
2019-02-16T01:21:04.129Z,65.50
2019-02-16T01:23:33.046Z,64.90
2019-02-16T01:26:01.989Z,65.70
2019-02-16T01:28:30.760Z,66.40
2019-02-16T01:30:59.631Z,66.50
2019-02-16T01:33:28.486Z,63.80
2019-02-16T01:35:57.407Z,60.90
2019-02-16T01:38:26.259Z,60.30
2019-02-16T01:40:55.109Z,59.20
2019-02-16T01:43:24.233Z,57.80
2019-02-16T01:45:55.736Z,57.50
2019-02-16T01:48:24.751Z,57.10
2019-02-16T01:50:53.617Z,57.60
2019-02-16T01:53:22.983Z,57.10
2019-02-16T01:55:51.917Z,56.00
2019-02-16T01:58:20.688Z,56.00
2019-02-16T02:00:49.847Z,55.60
2019-02-16T02:03:18.755Z,56.30
2019-02-16T02:05:47.547Z,56.60
2019-02-16T02:08:16.657Z,58.00
2019-02-16T02:10:45.423Z,59.10
2019-02-16T02:13:15.832Z,60.80
2019-02-16T02:16:04.920Z,60.30
2019-02-16T02:18:33.751Z,59.30
2019-02-16T02:21:02.698Z,58.20
2019-02-16T02:23:32.245Z,59.20
2019-02-16T02:26:01.924Z,59.40
2019-02-16T02:28:30.730Z,58.50
2019-02-16T02:30:59.938Z,57.50
2019-02-16T02:33:29.616Z,56.20
2019-02-16T02:35:58.442Z,55.10
2019-02-16T02:38:27.677Z,54.80
2019-02-16T02:40:58.017Z,53.90
2019-02-16T02:43:27.042Z,54.00
2019-02-16T02:45:57.388Z,53.60
2019-02-16T02:48:26.615Z,53.00
2019-02-16T02:50:55.533Z,52.70
2019-02-16T02:53:31.159Z,52.60
2019-02-16T02:55:56.177Z,51.70
2019-02-16T02:58:25.275Z,52.40
2019-02-16T03:00:54.449Z,52.00
2019-02-16T03:03:23.356Z,51.70
2019-02-16T03:05:52.620Z,52.30
2019-02-16T03:08:21.540Z,52.70
2019-02-16T03:10:50.482Z,51.90
2019-02-16T03:13:19.934Z,52.40
2019-02-16T03:15:49.295Z,53.20
2019-02-16T03:18:18.369Z,52.30
2019-02-16T03:20:47.569Z,51.60
2019-02-16T03:23:18.876Z,52.50
2019-02-16T03:26:09.521Z,53.10
2019-02-16T03:28:53.226Z,52.90
2019-02-16T03:31:37.639Z,52.60
2019-02-16T03:34:21.231Z,53.10
2019-02-16T03:37:17.180Z,52.80
2019-02-16T03:39:46.685Z,52.60
2019-02-16T03:42:15.572Z,53.40
2019-02-16T03:44:44.387Z,53.50
2019-02-16T03:47:13.276Z,53.60
2019-02-16T03:49:42.081Z,53.70
2019-02-16T03:52:14.096Z,53.80
2019-02-16T03:54:42.933Z,53.50
2019-02-16T03:57:11.918Z,53.70
2019-02-16T03:59:40.964Z,53.80
2019-02-16T04:02:11.204Z,53.60
2019-02-16T04:04:40.019Z,53.60
2019-02-16T04:07:08.893Z,53.60
2019-02-16T04:09:37.774Z,54.30
2019-02-16T04:12:07.258Z,54.10
2019-02-16T04:14:36.255Z,54.20
2019-02-16T04:17:11.717Z,54.60
2019-02-16T04:19:41.450Z,53.70
2019-02-16T04:22:11.410Z,54.80
2019-02-16T04:24:40.367Z,55.10
2019-02-16T04:27:09.168Z,55.50
2019-02-16T04:29:37.961Z,55.00
2019-02-16T04:32:07.575Z,54.80
2019-02-16T04:34:36.983Z,54.20
2019-02-16T04:37:06.111Z,54.60
2019-02-16T04:39:38.008Z,54.30
2019-02-16T04:42:06.809Z,54.10
2019-02-16T04:44:36.083Z,54.40
2019-02-16T04:47:08.268Z,55.30
2019-02-16T04:49:39.553Z,58.00
2019-02-16T04:52:08.370Z,60.00
2019-02-16T04:54:37.338Z,63.10
2019-02-16T04:57:06.223Z,66.90
2019-02-16T04:59:34.979Z,70.80
2019-02-16T05:02:03.859Z,75.10
2019-02-16T05:04:32.795Z,75.90
2019-02-16T05:07:02.417Z,76.60
2019-02-16T05:09:31.738Z,77.60
2019-02-16T05:12:00.610Z,78.30
2019-02-16T05:14:29.457Z,76.40
2019-02-16T05:16:58.370Z,76.70
2019-02-16T05:19:27.607Z,76.80
2019-02-16T05:21:56.621Z,76.90
2019-02-16T05:24:34.658Z,77.70
2019-02-16T05:30:35.113Z,78.10
2019-02-16T05:33:05.196Z,78.90
2019-02-16T05:35:35.760Z,78.00
2019-02-16T05:38:05.120Z,76.70
2019-02-16T05:40:33.916Z,79.00
2019-02-16T05:43:03.553Z,78.90
2019-02-16T05:45:33.418Z,77.40
2019-02-16T05:48:02.898Z,78.00
2019-02-16T05:50:33.299Z,78.70
2019-02-16T05:53:03.238Z,79.80
2019-02-16T05:55:32.421Z,80.80
2019-02-16T05:58:01.335Z,80.40
2019-02-16T06:00:31.742Z,79.80
2019-02-16T06:03:00.663Z,80.40
2019-02-16T06:05:29.493Z,79.60
2019-02-16T06:07:59.836Z,79.30
2019-02-16T06:10:30.501Z,80.20
2019-02-16T06:13:00.587Z,79.70
2019-02-16T06:15:30.016Z,79.20
2019-02-16T06:17:58.844Z,78.40
2019-02-16T06:20:27.852Z,78.00
2019-02-16T06:23:03.966Z,79.40
2019-02-16T06:25:28.449Z,78.40
2019-02-16T06:27:57.308Z,78.10
2019-02-16T06:30:26.848Z,77.30
2019-02-16T06:32:55.730Z,77.80
2019-02-16T06:35:29.402Z,76.10
2019-02-16T06:37:58.913Z,75.00
2019-02-16T06:40:27.894Z,74.80
2019-02-16T06:42:57.884Z,76.60
2019-02-16T06:45:26.872Z,77.30
2019-02-16T06:47:56.687Z,77.20
2019-02-16T06:50:25.568Z,77.40
2019-02-16T06:52:54.353Z,76.20
2019-02-16T06:55:24.823Z,77.40
2019-02-16T06:57:55.522Z,76.60
2019-02-16T07:00:27.786Z,76.70
2019-02-16T07:02:56.688Z,76.70
2019-02-16T07:05:25.538Z,76.00
2019-02-16T07:07:56.576Z,76.80
2019-02-16T07:10:25.408Z,76.10
2019-02-16T07:12:54.263Z,76.40
2019-02-16T07:15:23.196Z,75.50
2019-02-16T07:17:53.645Z,75.30
2019-02-16T07:20:24.017Z,74.30
2019-02-16T07:22:54.124Z,73.30
2019-02-16T07:25:23.276Z,71.10
2019-02-16T07:27:52.197Z,71.40
2019-02-16T07:30:21.159Z,71.50
2019-02-16T07:32:50.091Z,71.00
2019-02-16T07:35:19.825Z,71.90
2019-02-16T07:37:49.729Z,72.90
2019-02-16T07:40:19.079Z,73.50
2019-02-16T07:42:50.360Z,74.90
2019-02-16T07:45:23.399Z,73.00
2019-02-16T07:47:59.759Z,74.20
2019-02-16T07:50:32.605Z,74.40
2019-02-16T07:53:03.913Z,75.00
2019-02-16T07:58:42.901Z,73.30
2019-02-16T08:01:22.984Z,74.10
2019-02-16T08:04:13.933Z,75.10
2019-02-16T08:06:49.624Z,73.10
2019-02-16T08:09:22.847Z,72.70
2019-02-16T08:11:54.796Z,72.90
2019-02-16T08:14:28.844Z,69.70
2019-02-16T08:17:01.489Z,68.90
2019-02-16T08:19:39.099Z,70.20
2019-02-16T08:22:10.217Z,70.30
2019-02-16T08:27:39.244Z,72.50
2019-02-16T08:30:26.715Z,74.90
2019-02-16T08:36:04.939Z,75.30
2019-02-16T08:38:38.224Z,75.30
2019-02-16T08:43:44.136Z,76.50
2019-02-16T08:46:23.634Z,74.70
2019-02-16T08:49:07.155Z,75.70
2019-02-16T08:52:31.668Z,76.30
2019-02-16T08:55:30.764Z,77.20
2019-02-16T09:01:45.737Z,76.00
2019-02-16T09:04:23.583Z,75.30
2019-02-16T09:06:59.405Z,74.70
2019-02-16T09:09:51.241Z,75.80
2019-02-16T09:12:52.266Z,75.40
2019-02-16T09:15:26.303Z,77.40
2019-02-16T09:21:14.645Z,75.60
2019-02-16T09:23:44.573Z,75.00
2019-02-16T09:26:19.269Z,75.80
2019-02-16T09:29:01.409Z,73.90
2019-02-16T09:34:55.406Z,75.60
2019-02-16T09:37:26.404Z,76.20
2019-02-16T09:40:08.500Z,76.10
2019-02-16T09:43:06.563Z,74.30
2019-02-16T09:45:37.129Z,72.90
2019-02-16T09:51:10.407Z,71.50
2019-02-16T09:53:42.327Z,72.70
2019-02-16T09:56:22.442Z,72.40
2019-02-16T09:59:20.015Z,73.60
2019-02-16T10:01:56.380Z,74.80
2019-02-16T10:04:26.854Z,75.00
2019-02-16T10:07:02.543Z,75.00
2019-02-16T10:09:33.260Z,76.20
2019-02-16T10:12:04.697Z,76.90
2019-02-16T10:14:48.044Z,76.40
2019-02-16T10:17:21.465Z,76.70
2019-02-16T10:20:12.159Z,77.10
2019-02-16T10:34:11.070Z,76.20
2019-02-16T10:49:02.108Z,71.70
2019-02-16T10:55:24.391Z,70.40
2019-02-16T10:58:40.182Z,73.40
2019-02-16T11:01:16.483Z,73.80
2019-02-16T11:03:59.070Z,71.10
2019-02-16T11:06:34.215Z,72.10
2019-02-16T11:09:15.490Z,71.40
2019-02-16T11:11:46.184Z,73.30
2019-02-16T11:14:32.954Z,73.40
2019-02-16T11:17:09.776Z,71.20
2019-02-16T11:19:49.966Z,72.70
2019-02-16T11:22:37.617Z,72.50
2019-02-16T11:25:24.404Z,72.70
2019-02-16T11:28:00.817Z,73.90
2019-02-16T11:30:32.761Z,74.60
2019-02-16T11:33:24.976Z,74.80
2019-02-16T11:35:58.279Z,72.10
2019-02-16T11:38:31.964Z,71.90
2019-02-16T11:41:18.966Z,71.20
2019-02-16T11:43:55.652Z,70.90
2019-02-16T11:46:34.017Z,71.40
2019-02-16T11:49:20.529Z,73.10
2019-02-16T11:52:06.197Z,73.60
2019-02-16T11:54:45.742Z,75.20
2019-02-16T11:57:16.833Z,73.60
2019-02-16T11:59:50.400Z,75.70
2019-02-16T12:02:20.803Z,74.70
2019-02-16T12:04:58.215Z,74.70
2019-02-16T12:07:28.749Z,73.90
2019-02-16T12:10:05.143Z,74.10
2019-02-16T12:12:52.012Z,73.40
2019-02-16T12:15:25.082Z,72.20
2019-02-16T12:17:55.878Z,71.60
2019-02-16T12:20:33.394Z,71.90
2019-02-16T12:22:58.397Z,71.30
2019-02-16T12:25:34.536Z,72.50
2019-02-16T12:28:08.747Z,71.90
2019-02-16T12:30:39.682Z,71.20
2019-02-16T12:33:28.244Z,71.10
2019-02-16T12:36:01.232Z,73.00
2019-02-16T12:38:31.705Z,72.40
2019-02-16T12:41:07.970Z,71.80
2019-02-16T12:43:38.376Z,71.60
2019-02-16T12:46:18.227Z,70.60
2019-02-16T12:49:07.385Z,71.40
2019-02-16T12:51:37.802Z,72.20
2019-02-16T12:54:14.041Z,72.80
2019-02-16T12:56:46.161Z,71.80
2019-02-16T12:59:18.118Z,73.50
2019-02-16T13:02:04.826Z,73.30
2019-02-16T13:04:40.740Z,73.20
2019-02-16T13:07:27.484Z,74.00
2019-02-16T13:10:05.221Z,72.60
2019-02-16T13:12:35.627Z,72.30
2019-02-16T13:15:15.965Z,73.70
2019-02-16T13:17:49.038Z,73.60
2019-02-16T13:20:19.487Z,73.50
2019-02-16T13:22:49.898Z,73.90
2019-02-16T13:25:29.296Z,74.50
2019-02-16T13:27:59.677Z,74.00
2019-02-16T13:30:36.902Z,74.10
2019-02-16T13:33:08.776Z,73.50
2019-02-16T13:35:45.077Z,73.30
2019-02-16T13:38:15.547Z,73.50
2019-02-16T13:40:50.715Z,72.70
2019-02-16T13:43:39.410Z,72.60
2019-02-16T13:46:15.835Z,73.10
2019-02-16T13:48:47.701Z,73.00
2019-02-16T13:51:21.044Z,73.40
2019-02-16T13:54:00.769Z,72.30
2019-02-16T13:56:40.555Z,70.40
2019-02-16T13:59:10.964Z,72.30
2019-02-16T14:01:41.391Z,72.50
2019-02-16T14:04:22.303Z,72.20
2019-02-16T14:06:59.073Z,72.40
2019-02-16T14:09:40.785Z,71.70
2019-02-16T14:12:16.894Z,71.30
2019-02-16T14:15:02.795Z,71.60
2019-02-16T14:17:33.155Z,71.70
2019-02-16T14:20:01.897Z,72.50
2019-02-16T14:22:30.656Z,72.00
2019-02-16T14:25:00.858Z,73.00
2019-02-16T14:27:30.681Z,71.00
2019-02-16T14:29:59.548Z,71.60
2019-02-16T14:32:28.260Z,71.60
2019-02-16T14:34:57.086Z,71.40
2019-02-16T14:37:39.561Z,71.40
2019-02-16T14:40:08.746Z,69.70
2019-02-16T14:42:37.550Z,70.30
2019-02-16T14:45:11.898Z,71.60
2019-02-16T14:47:40.659Z,72.40
2019-02-16T14:50:11.809Z,72.50
2019-02-16T14:52:40.570Z,71.20
2019-02-16T14:55:15.081Z,72.40
2019-02-16T14:57:43.822Z,73.00
2019-02-16T15:00:13.360Z,73.50
2019-02-16T15:02:42.165Z,71.40
2019-02-16T15:05:10.978Z,70.40
2019-02-16T15:07:39.808Z,69.40
2019-02-16T15:10:12.894Z,71.30
2019-02-16T15:12:41.612Z,72.50
2019-02-16T15:15:11.705Z,72.10
2019-02-16T15:17:40.504Z,70.80
2019-02-16T15:20:16.506Z,71.40
2019-02-16T15:22:45.346Z,72.50
2019-02-16T15:25:14.123Z,72.30
2019-02-16T15:27:42.965Z,72.60
2019-02-16T15:30:14.755Z,72.90
2019-02-16T15:32:43.511Z,72.00
2019-02-16T15:35:12.463Z,71.00
2019-02-16T15:37:41.242Z,69.60
2019-02-16T15:40:11.230Z,69.00
2019-02-16T15:42:39.971Z,69.10
2019-02-16T15:45:11.444Z,69.00
2019-02-16T15:47:40.304Z,68.80
2019-02-16T15:50:11.302Z,70.50
2019-02-16T15:52:40.146Z,70.30
2019-02-16T15:55:12.579Z,69.50
2019-02-16T15:57:41.547Z,69.40
2019-02-16T16:00:18.603Z,70.10
2019-02-16T16:02:47.427Z,70.30
2019-02-16T16:05:16.199Z,70.90
2019-02-16T16:07:46.590Z,70.00
2019-02-16T16:10:17.011Z,67.60
2019-02-16T16:12:47.390Z,68.40
2019-02-16T16:15:20.910Z,70.50
2019-02-16T16:17:54.433Z,73.50
2019-02-16T16:20:30.396Z,71.20
2019-02-16T16:23:06.872Z,71.40
2019-02-16T16:25:37.277Z,70.80
2019-02-16T16:28:22.751Z,72.50
2019-02-16T16:30:59.489Z,73.70
2019-02-16T16:33:31.497Z,72.60
2019-02-16T16:36:05.249Z,72.00
2019-02-16T16:38:35.649Z,71.00
2019-02-16T16:41:06.095Z,69.20
2019-02-16T16:43:52.561Z,70.30
2019-02-16T16:46:40.812Z,70.00
2019-02-16T16:49:27.595Z,68.70
2019-02-16T16:52:00.783Z,69.90
2019-02-16T16:54:40.121Z,69.90
2019-02-16T16:57:16.619Z,70.40
2019-02-16T16:59:53.255Z,71.90
2019-02-16T17:02:35.852Z,71.20
2019-02-16T17:05:07.670Z,69.40
2019-02-16T17:07:38.116Z,70.40
2019-02-16T17:10:15.763Z,71.20
2019-02-16T17:12:49.159Z,71.20
2019-02-16T17:15:36.135Z,70.40
2019-02-16T17:18:24.875Z,71.60
2019-02-16T17:21:13.893Z,72.00
2019-02-16T17:23:50.553Z,74.00
2019-02-16T17:26:38.060Z,73.40
2019-02-16T17:29:11.429Z,71.50
2019-02-16T17:31:51.270Z,71.00
2019-02-16T17:34:21.735Z,71.00
2019-02-16T17:37:07.153Z,71.10
2019-02-16T17:39:52.585Z,69.70
2019-02-16T17:42:32.139Z,70.10
2019-02-16T17:45:12.550Z,70.20
2019-02-16T17:47:44.601Z,69.80
2019-02-16T17:50:20.770Z,69.60
2019-02-16T17:52:57.240Z,69.70
2019-02-16T17:55:27.705Z,69.60
2019-02-16T17:58:06.593Z,70.60
2019-02-16T18:00:37.586Z,70.60
2019-02-16T18:03:10.763Z,69.10
2019-02-16T18:05:57.713Z,68.70
2019-02-16T18:08:31.403Z,67.90
2019-02-16T18:11:08.526Z,68.70
2019-02-16T18:13:41.655Z,72.40
2019-02-16T18:16:14.938Z,72.90
2019-02-16T18:18:45.332Z,72.00
2019-02-16T18:21:15.840Z,72.80
2019-02-16T18:23:52.906Z,73.60
2019-02-16T18:26:37.963Z,74.40
2019-02-16T18:29:08.480Z,75.40
2019-02-16T18:31:41.560Z,77.10
2019-02-16T18:34:23.202Z,77.90
2019-02-16T18:36:53.703Z,77.60
2019-02-16T18:39:27.881Z,78.80
2019-02-16T18:42:14.525Z,76.80
2019-02-16T18:44:54.248Z,77.00
2019-02-16T18:47:30.764Z,76.10
2019-02-16T18:50:07.054Z,75.30
2019-02-16T18:52:48.113Z,75.00
2019-02-16T18:55:18.645Z,74.00
2019-02-16T18:58:05.291Z,72.90
2019-02-16T19:00:38.734Z,73.40
2019-02-16T19:03:12.159Z,74.30
2019-02-16T19:05:42.563Z,75.00
2019-02-16T19:08:22.298Z,74.30
2019-02-16T19:13:58.501Z,74.70
2019-02-16T19:16:31.571Z,75.40
2019-02-16T19:19:04.681Z,73.70
2019-02-16T19:21:47.087Z,72.90
2019-02-16T19:24:23.644Z,71.20
2019-02-16T19:29:45.095Z,69.80
2019-02-16T19:32:21.442Z,72.50
2019-02-16T19:34:51.823Z,71.30
2019-02-16T19:37:22.278Z,70.60
2019-02-16T19:40:04.779Z,69.90
2019-02-16T19:42:38.140Z,69.50
2019-02-16T19:45:12.856Z,71.00
2019-02-16T19:47:49.140Z,72.00
2019-02-16T19:50:22.506Z,72.90
2019-02-16T19:52:55.868Z,74.70
2019-02-16T19:55:34.797Z,73.00
2019-02-16T19:58:21.092Z,73.70
2019-02-16T20:01:07.629Z,73.00
2019-02-16T20:03:40.802Z,71.70
2019-02-16T20:06:14.286Z,72.70
2019-02-16T20:08:47.375Z,72.80
2019-02-16T20:11:26.630Z,71.90
2019-02-16T20:14:05.946Z,73.50
2019-02-16T20:16:39.411Z,73.60
2019-02-16T20:19:17.106Z,73.30
2019-02-16T20:21:52.238Z,73.80
2019-02-16T20:24:39.293Z,73.30
2019-02-16T20:27:12.759Z,73.40
2019-02-16T20:29:46.124Z,74.00
2019-02-16T20:32:16.532Z,72.70
2019-02-16T20:34:47.049Z,72.40
2019-02-16T20:37:26.376Z,72.00
2019-02-16T20:40:03.484Z,71.80
2019-02-16T20:42:42.585Z,72.70
2019-02-16T20:45:25.005Z,74.30
2019-02-16T20:48:07.180Z,73.10
2019-02-16T20:50:37.914Z,74.10
2019-02-16T20:53:24.851Z,76.60
2019-02-16T20:56:01.279Z,75.80
2019-02-16T20:58:31.651Z,74.50
2019-02-16T21:01:14.176Z,76.40
2019-02-16T21:04:00.925Z,74.40
2019-02-16T21:06:47.545Z,72.90
2019-02-16T21:09:29.788Z,72.60
2019-02-16T21:12:09.130Z,73.30
2019-02-16T21:14:48.224Z,72.80
2019-02-16T21:17:18.584Z,71.40
2019-02-16T21:19:51.866Z,70.00
2019-02-16T21:22:25.175Z,69.70
2019-02-16T21:24:55.562Z,68.80
2019-02-16T21:27:28.869Z,69.70
2019-02-16T21:30:02.380Z,69.30
2019-02-16T21:32:35.402Z,68.30
2019-02-16T21:35:06.127Z,67.50
2019-02-16T21:37:36.629Z,68.30
2019-02-16T21:40:10.779Z,70.00
2019-02-16T21:42:50.148Z,71.10
2019-02-16T21:45:29.324Z,69.80
2019-02-16T21:48:15.626Z,69.60
2019-02-16T21:50:49.872Z,69.30
2019-02-16T21:53:21.646Z,70.40
2019-02-16T21:55:58.728Z,68.10
2019-02-16T21:58:45.362Z,67.60
2019-02-16T22:01:33.843Z,68.10
2019-02-16T22:04:13.230Z,68.80
2019-02-16T22:06:46.357Z,68.10
2019-02-16T22:09:28.824Z,68.80
2019-02-16T22:12:08.317Z,70.00
2019-02-16T22:14:37.594Z,68.50
2019-02-16T22:17:06.403Z,66.10
2019-02-16T22:19:35.153Z,67.20
2019-02-16T22:22:03.899Z,69.00
2019-02-16T22:24:32.739Z,68.10
2019-02-16T22:27:01.541Z,66.50
2019-02-16T22:29:30.270Z,66.90
2019-02-16T22:31:59.047Z,66.10
2019-02-16T22:34:27.756Z,68.80
2019-02-16T22:36:56.487Z,69.50
2019-02-16T22:39:25.246Z,69.70
2019-02-16T22:41:55.246Z,69.70
2019-02-16T22:44:23.972Z,69.00
2019-02-16T22:46:52.721Z,69.90
2019-02-16T22:49:23.311Z,70.50
2019-02-16T22:51:52.036Z,73.80
2019-02-16T22:54:20.767Z,74.30
2019-02-16T22:56:49.489Z,72.50
2019-02-16T22:59:20.038Z,72.30
2019-02-16T23:01:48.850Z,73.00
2019-02-16T23:04:17.593Z,73.10
2019-02-16T23:06:46.295Z,72.30
2019-02-16T23:09:19.305Z,74.00
2019-02-16T23:11:48.140Z,76.20
2019-02-16T23:14:16.925Z,75.40
2019-02-16T23:16:45.633Z,75.80
2019-02-16T23:19:14.388Z,76.80
2019-02-16T23:21:43.154Z,74.60
2019-02-16T23:24:11.917Z,74.10
2019-02-16T23:26:40.603Z,74.80
2019-02-16T23:29:09.346Z,74.10
2019-02-16T23:31:38.211Z,73.50
2019-02-16T23:34:07.021Z,75.20
2019-02-16T23:36:35.750Z,75.30
2019-02-16T23:39:06.398Z,76.50
2019-02-16T23:41:35.140Z,76.00
2019-02-16T23:44:03.973Z,77.00
2019-02-16T23:46:32.691Z,76.00
2019-02-16T23:49:01.457Z,75.60
2019-02-16T23:51:30.173Z,77.40
2019-02-16T23:53:58.987Z,76.00
2019-02-16T23:56:28.793Z,74.90
2019-02-16T23:58:57.590Z,73.90
